sensor_id;sensor_type;location;lat;lon;timestamp;pressure;altitude;pressure_sealevel;temperature;humidity
28289;BME280;15558;50.874;6.964;2022-08-19T00:01:18;100859.69;;;23.48;61.69
28289;BME280;15558;50.874;6.964;2022-08-19T00:03:44;100863.78;;;23.47;61.66
28289;BME280;15558;50.874;6.964;2022-08-19T00:06:10;100860.91;;;23.47;61.68
28289;BME280;15558;50.874;6.964;2022-08-19T00:08:36;100860.00;;;23.43;61.86
28289;BME280;15558;50.874;6.964;2022-08-19T00:11:02;100859.94;;;23.39;62.07
28289;BME280;15558;50.874;6.964;2022-08-19T00:13:28;100851.28;;;23.36;62.15
28289;BME280;15558;50.874;6.964;2022-08-19T00:15:55;100851.28;;;23.36;62.25
28289;BME280;15558;50.874;6.964;2022-08-19T00:18:21;100847.53;;;23.32;62.49
28289;BME280;15558;50.874;6.964;2022-08-19T00:20:47;100856.44;;;23.27;62.45
28289;BME280;15558;50.874;6.964;2022-08-19T00:23:13;100860.97;;;23.28;62.52
28289;BME280;15558;50.874;6.964;2022-08-19T00:25:39;100866.25;;;23.26;62.56
28289;BME280;15558;50.874;6.964;2022-08-19T00:28:04;100861.72;;;23.25;62.88
28289;BME280;15558;50.874;6.964;2022-08-19T00:30:30;100869.84;;;23.23;62.60
28289;BME280;15558;50.874;6.964;2022-08-19T00:32:57;100867.00;;;23.23;62.98
28289;BME280;15558;50.874;6.964;2022-08-19T00:35:23;100858.03;;;23.24;62.81
28289;BME280;15558;50.874;6.964;2022-08-19T00:37:50;100855.84;;;23.18;63.01
28289;BME280;15558;50.874;6.964;2022-08-19T00:40:16;100860.38;;;23.19;63.00
28289;BME280;15558;50.874;6.964;2022-08-19T00:42:44;100850.88;;;23.15;62.73
28289;BME280;15558;50.874;6.964;2022-08-19T00:45:17;100857.38;;;23.12;62.89
28289;BME280;15558;50.874;6.964;2022-08-19T00:47:44;100857.38;;;23.12;63.36
28289;BME280;15558;50.874;6.964;2022-08-19T00:50:12;100852.78;;;23.08;63.22
28289;BME280;15558;50.874;6.964;2022-08-19T00:52:41;100866.22;;;23.04;63.37
28289;BME280;15558;50.874;6.964;2022-08-19T00:55:19;100857.94;;;22.99;63.36
28289;BME280;15558;50.874;6.964;2022-08-19T00:57:52;100854.69;;;23.00;63.46
28289;BME280;15558;50.874;6.964;2022-08-19T01:00:21;100858.69;;;22.96;63.68
28289;BME280;15558;50.874;6.964;2022-08-19T01:02:48;100866.81;;;22.94;63.45
28289;BME280;15558;50.874;6.964;2022-08-19T01:05:17;100873.31;;;22.91;63.32
28289;BME280;15558;50.874;6.964;2022-08-19T01:07:47;100867.50;;;22.88;63.33
28289;BME280;15558;50.874;6.964;2022-08-19T01:10:16;100858.47;;;22.86;63.32
28289;BME280;15558;50.874;6.964;2022-08-19T01:12:45;100872.78;;;22.86;63.23
28289;BME280;15558;50.874;6.964;2022-08-19T01:15:14;100862.44;;;22.81;63.24
28289;BME280;15558;50.874;6.964;2022-08-19T01:17:41;100853.47;;;22.83;63.10
28289;BME280;15558;50.874;6.964;2022-08-19T01:20:19;100854.16;;;22.76;63.30
28289;BME280;15558;50.874;6.964;2022-08-19T01:22:55;100854.97;;;22.77;63.36
28289;BME280;15558;50.874;6.964;2022-08-19T01:25:33;100850.06;;;22.77;62.90
28289;BME280;15558;50.874;6.964;2022-08-19T01:28:01;100852.03;;;22.73;63.13
28289;BME280;15558;50.874;6.964;2022-08-19T01:30:32;100848.22;;;22.66;63.32
28289;BME280;15558;50.874;6.964;2022-08-19T01:32:59;100848.66;;;22.68;63.47
28289;BME280;15558;50.874;6.964;2022-08-19T01:35:30;100856.81;;;22.66;63.65
28289;BME280;15558;50.874;6.964;2022-08-19T01:38:00;100849.78;;;22.63;63.50
28289;BME280;15558;50.874;6.964;2022-08-19T01:40:30;100837.88;;;22.61;63.47
28289;BME280;15558;50.874;6.964;2022-08-19T01:42:57;100839.91;;;22.61;63.46
28289;BME280;15558;50.874;6.964;2022-08-19T01:45:25;100837.44;;;22.59;63.61
28289;BME280;15558;50.874;6.964;2022-08-19T01:47:52;100832.91;;;22.58;63.73
28289;BME280;15558;50.874;6.964;2022-08-19T01:50:18;100833.69;;;22.55;63.59
28289;BME280;15558;50.874;6.964;2022-08-19T01:52:44;100834.78;;;22.51;64.03
28289;BME280;15558;50.874;6.964;2022-08-19T01:55:14;100839.69;;;22.51;64.28
28289;BME280;15558;50.874;6.964;2022-08-19T01:57:42;100841.28;;;22.48;64.13
28289;BME280;15558;50.874;6.964;2022-08-19T02:00:14;100836.78;;;22.47;64.25
28289;BME280;15558;50.874;6.964;2022-08-19T02:02:42;100849.03;;;22.48;64.23
28289;BME280;15558;50.874;6.964;2022-08-19T02:05:09;100858.81;;;22.47;64.19
28289;BME280;15558;50.874;6.964;2022-08-19T02:07:36;100856.41;;;22.49;64.32
28289;BME280;15558;50.874;6.964;2022-08-19T02:10:07;100851.13;;;22.51;64.43
28289;BME280;15558;50.874;6.964;2022-08-19T02:12:33;100851.91;;;22.48;64.56
28289;BME280;15558;50.874;6.964;2022-08-19T02:14:59;100853.53;;;22.49;64.49
28289;BME280;15558;50.874;6.964;2022-08-19T02:17:26;100842.50;;;22.47;64.44
28289;BME280;15558;50.874;6.964;2022-08-19T02:19:55;100844.91;;;22.45;64.61
28289;BME280;15558;50.874;6.964;2022-08-19T02:22:23;100840.69;;;22.39;64.74
28289;BME280;15558;50.874;6.964;2022-08-19T02:24:54;100838.94;;;22.35;64.88
28289;BME280;15558;50.874;6.964;2022-08-19T02:27:22;100840.97;;;22.34;65.02
28289;BME280;15558;50.874;6.964;2022-08-19T02:29:50;100843.44;;;22.36;65.22
28289;BME280;15558;50.874;6.964;2022-08-19T02:32:17;100849.84;;;22.29;65.08
28289;BME280;15558;50.874;6.964;2022-08-19T02:34:45;100844.78;;;22.23;65.37
28289;BME280;15558;50.874;6.964;2022-08-19T02:37:12;100846.84;;;22.22;65.50
28289;BME280;15558;50.874;6.964;2022-08-19T02:39:58;100850.16;;;22.24;65.62
28289;BME280;15558;50.874;6.964;2022-08-19T02:42:24;100859.09;;;22.23;65.51
28289;BME280;15558;50.874;6.964;2022-08-19T02:44:51;100862.50;;;22.28;65.42
28289;BME280;15558;50.874;6.964;2022-08-19T02:47:18;100868.59;;;22.27;65.50
28289;BME280;15558;50.874;6.964;2022-08-19T02:49:45;100863.22;;;22.25;65.80
28289;BME280;15558;50.874;6.964;2022-08-19T02:52:11;100863.53;;;22.20;65.90
28289;BME280;15558;50.874;6.964;2022-08-19T02:54:37;100866.00;;;22.22;65.86
28289;BME280;15558;50.874;6.964;2022-08-19T02:57:04;100868.50;;;22.23;65.73
28289;BME280;15558;50.874;6.964;2022-08-19T02:59:32;100865.94;;;22.18;65.73
28289;BME280;15558;50.874;6.964;2022-08-19T03:01:58;100860.13;;;22.15;65.90
28289;BME280;15558;50.874;6.964;2022-08-19T03:04:24;100859.75;;;22.17;65.99
28289;BME280;15558;50.874;6.964;2022-08-19T03:06:50;100856.91;;;22.17;65.85
28289;BME280;15558;50.874;6.964;2022-08-19T03:09:18;100869.16;;;22.17;65.82
28289;BME280;15558;50.874;6.964;2022-08-19T03:11:45;100858.53;;;22.17;65.84
28289;BME280;15558;50.874;6.964;2022-08-19T03:14:11;100866.31;;;22.17;65.99
28289;BME280;15558;50.874;6.964;2022-08-19T03:16:44;100858.50;;;22.14;65.80
28289;BME280;15558;50.874;6.964;2022-08-19T03:19:11;100860.13;;;22.15;65.95
28289;BME280;15558;50.874;6.964;2022-08-19T03:21:37;100863.81;;;22.16;66.21
28289;BME280;15558;50.874;6.964;2022-08-19T03:24:06;100868.34;;;22.17;66.14
28289;BME280;15558;50.874;6.964;2022-08-19T03:26:33;100874.88;;;22.17;66.16
28289;BME280;15558;50.874;6.964;2022-08-19T03:29:04;100873.97;;;22.13;66.15
28289;BME280;15558;50.874;6.964;2022-08-19T03:31:30;100876.00;;;22.13;66.22
28289;BME280;15558;50.874;6.964;2022-08-19T03:33:56;100877.16;;;22.12;66.36
28289;BME280;15558;50.874;6.964;2022-08-19T03:36:26;100878.28;;;22.07;66.44
28289;BME280;15558;50.874;6.964;2022-08-19T03:38:56;100886.03;;;22.07;66.75
28289;BME280;15558;50.874;6.964;2022-08-19T03:41:35;100880.31;;;22.07;66.71
28289;BME280;15558;50.874;6.964;2022-08-19T03:44:02;100887.72;;;22.08;66.70
28289;BME280;15558;50.874;6.964;2022-08-19T03:46:32;100886.03;;;22.07;66.73
28289;BME280;15558;50.874;6.964;2022-08-19T03:49:01;100881.53;;;22.06;66.50
28289;BME280;15558;50.874;6.964;2022-08-19T03:51:32;100888.91;;;22.07;66.29
28289;BME280;15558;50.874;6.964;2022-08-19T03:54:00;100887.63;;;22.04;66.37
28289;BME280;15558;50.874;6.964;2022-08-19T03:56:28;100886.41;;;22.05;66.49
28289;BME280;15558;50.874;6.964;2022-08-19T03:58:56;100897.00;;;22.05;66.31
28289;BME280;15558;50.874;6.964;2022-08-19T04:01:25;100894.81;;;21.98;66.35
28289;BME280;15558;50.874;6.964;2022-08-19T04:03:52;100899.72;;;21.98;66.51
28289;BME280;15558;50.874;6.964;2022-08-19T04:06:24;100891.50;;;21.96;66.50
28289;BME280;15558;50.874;6.964;2022-08-19T04:08:52;100884.03;;;21.92;66.54
28289;BME280;15558;50.874;6.964;2022-08-19T04:11:29;100888.09;;;21.91;66.67
28289;BME280;15558;50.874;6.964;2022-08-19T04:13:56;100891.78;;;21.91;66.71
28289;BME280;15558;50.874;6.964;2022-08-19T04:16:25;100890.13;;;21.90;66.74
28289;BME280;15558;50.874;6.964;2022-08-19T04:18:54;100904.06;;;21.92;66.91
28289;BME280;15558;50.874;6.964;2022-08-19T04:21:24;100901.91;;;21.89;66.83
28289;BME280;15558;50.874;6.964;2022-08-19T04:23:51;100897.41;;;21.88;67.11
28289;BME280;15558;50.874;6.964;2022-08-19T04:26:21;100906.00;;;21.88;66.98
28289;BME280;15558;50.874;6.964;2022-08-19T04:28:47;100907.19;;;21.87;67.16
28289;BME280;15558;50.874;6.964;2022-08-19T04:31:23;100911.16;;;21.82;67.44
28289;BME280;15558;50.874;6.964;2022-08-19T04:33:57;100911.59;;;21.84;67.43
28289;BME280;15558;50.874;6.964;2022-08-19T04:36:25;100903.88;;;21.85;67.36
28289;BME280;15558;50.874;6.964;2022-08-19T04:38:56;100907.47;;;21.82;67.02
28289;BME280;15558;50.874;6.964;2022-08-19T04:41:23;100905.88;;;21.84;67.45
28289;BME280;15558;50.874;6.964;2022-08-19T04:44:08;100909.22;;;21.86;67.42
28289;BME280;15558;50.874;6.964;2022-08-19T04:46:34;100915.78;;;21.87;67.20
28289;BME280;15558;50.874;6.964;2022-08-19T04:49:02;100908.09;;;21.91;67.02
28289;BME280;15558;50.874;6.964;2022-08-19T04:51:31;100924.06;;;21.92;67.10
28289;BME280;15558;50.874;6.964;2022-08-19T04:53:58;100922.78;;;21.89;67.08
28289;BME280;15558;50.874;6.964;2022-08-19T04:56:26;100921.19;;;21.92;67.39
28289;BME280;15558;50.874;6.964;2022-08-19T04:58:53;100925.69;;;21.93;66.99
28289;BME280;15558;50.874;6.964;2022-08-19T05:01:25;100940.47;;;21.95;67.31
28289;BME280;15558;50.874;6.964;2022-08-19T05:03:52;100932.75;;;21.95;67.29
28289;BME280;15558;50.874;6.964;2022-08-19T05:06:20;100934.84;;;21.98;67.39
28289;BME280;15558;50.874;6.964;2022-08-19T05:08:47;100936.06;;;21.97;67.69
28289;BME280;15558;50.874;6.964;2022-08-19T05:11:24;100946.84;;;22.04;67.65
28289;BME280;15558;50.874;6.964;2022-08-19T05:13:51;100948.03;;;22.03;68.04
28289;BME280;15558;50.874;6.964;2022-08-19T05:16:20;100943.53;;;22.02;68.41
28289;BME280;15558;50.874;6.964;2022-08-19T05:18:47;100944.81;;;22.04;68.32
28289;BME280;15558;50.874;6.964;2022-08-19T05:21:32;100948.19;;;22.10;68.43
28289;BME280;15558;50.874;6.964;2022-08-19T05:24:18;100950.22;;;22.09;68.64
28289;BME280;15558;50.874;6.964;2022-08-19T05:26:47;100958.44;;;22.11;68.64
28289;BME280;15558;50.874;6.964;2022-08-19T05:29:15;100946.75;;;22.16;68.83
28289;BME280;15558;50.874;6.964;2022-08-19T05:31:42;100947.59;;;22.16;68.99
28289;BME280;15558;50.874;6.964;2022-08-19T05:34:09;100948.47;;;22.20;68.95
28289;BME280;15558;50.874;6.964;2022-08-19T05:36:38;100955.06;;;22.20;69.30
28289;BME280;15558;50.874;6.964;2022-08-19T05:39:08;100960.13;;;22.27;69.08
28289;BME280;15558;50.874;6.964;2022-08-19T05:41:34;100965.06;;;22.30;69.39
28289;BME280;15558;50.874;6.964;2022-08-19T05:44:04;100963.59;;;22.36;69.70
28289;BME280;15558;50.874;6.964;2022-08-19T05:46:36;100958.78;;;22.40;69.61
28289;BME280;15558;50.874;6.964;2022-08-19T05:49:07;100960.88;;;22.43;69.90
28289;BME280;15558;50.874;6.964;2022-08-19T05:51:34;100963.84;;;22.46;70.00
28289;BME280;15558;50.874;6.964;2022-08-19T05:54:04;100959.81;;;22.47;69.96
28289;BME280;15558;50.874;6.964;2022-08-19T05:56:31;100958.22;;;22.50;69.76
28289;BME280;15558;50.874;6.964;2022-08-19T05:58:58;100967.25;;;22.52;69.67
28289;BME280;15558;50.874;6.964;2022-08-19T06:01:25;100961.59;;;22.55;69.74
28289;BME280;15558;50.874;6.964;2022-08-19T06:03:52;100960.88;;;22.58;69.69
28289;BME280;15558;50.874;6.964;2022-08-19T06:06:18;100956.88;;;22.62;69.63
28289;BME280;15558;50.874;6.964;2022-08-19T06:08:45;100958.16;;;22.65;69.47
28289;BME280;15558;50.874;6.964;2022-08-19T06:11:24;100945.13;;;22.67;69.17
28289;BME280;15558;50.874;6.964;2022-08-19T06:13:53;100937.09;;;22.73;69.13
28289;BME280;15558;50.874;6.964;2022-08-19T06:16:22;100940.09;;;22.80;69.04
28289;BME280;15558;50.874;6.964;2022-08-19T06:18:59;100939.44;;;22.86;69.07
28289;BME280;15558;50.874;6.964;2022-08-19T06:21:27;100942.41;;;22.89;68.87
28289;BME280;15558;50.874;6.964;2022-08-19T06:23:55;100944.22;;;22.97;69.08
28289;BME280;15558;50.874;6.964;2022-08-19T06:26:22;100940.22;;;23.02;68.82
28289;BME280;15558;50.874;6.964;2022-08-19T06:28:49;100936.78;;;23.15;68.96
28289;BME280;15558;50.874;6.964;2022-08-19T06:31:16;100940.72;;;23.26;68.93
28289;BME280;15558;50.874;6.964;2022-08-19T06:33:44;100942.91;;;23.32;68.54
28289;BME280;15558;50.874;6.964;2022-08-19T06:36:26;100935.22;;;23.36;68.00
28289;BME280;15558;50.874;6.964;2022-08-19T06:38:58;100943.94;;;23.43;67.91
28289;BME280;15558;50.874;6.964;2022-08-19T06:41:25;100953.81;;;23.46;67.73
28289;BME280;15558;50.874;6.964;2022-08-19T06:43:52;100953.97;;;23.53;67.66
28289;BME280;15558;50.874;6.964;2022-08-19T06:46:18;100951.31;;;23.63;67.66
28289;BME280;15558;50.874;6.964;2022-08-19T06:48:46;100954.38;;;23.73;68.02
28289;BME280;15558;50.874;6.964;2022-08-19T06:51:14;100948.78;;;23.80;67.35
28289;BME280;15558;50.874;6.964;2022-08-19T06:53:41;100953.91;;;23.94;67.51
28289;BME280;15558;50.874;6.964;2022-08-19T06:56:14;100958.66;;;24.05;66.56
28289;BME280;15558;50.874;6.964;2022-08-19T06:58:40;100955.16;;;24.18;66.43
28289;BME280;15558;50.874;6.964;2022-08-19T07:01:07;100966.81;;;24.25;66.27
28289;BME280;15558;50.874;6.964;2022-08-19T07:03:35;100957.66;;;24.42;65.85
28289;BME280;15558;50.874;6.964;2022-08-19T07:06:10;100956.59;;;24.53;64.82
28289;BME280;15558;50.874;6.964;2022-08-19T07:08:37;100962.53;;;24.38;63.50
28289;BME280;15558;50.874;6.964;2022-08-19T07:11:09;100966.16;;;24.35;63.70
28289;BME280;15558;50.874;6.964;2022-08-19T07:13:36;100968.13;;;24.31;63.60
28289;BME280;15558;50.874;6.964;2022-08-19T07:16:07;100965.56;;;24.48;63.21
28289;BME280;15558;50.874;6.964;2022-08-19T07:18:34;100966.31;;;24.71;62.68
28289;BME280;15558;50.874;6.964;2022-08-19T07:21:12;100979.94;;;24.52;62.99
28289;BME280;15558;50.874;6.964;2022-08-19T07:23:38;100973.28;;;24.96;62.34
28289;BME280;15558;50.874;6.964;2022-08-19T07:26:07;100979.84;;;24.70;62.38
28289;BME280;15558;50.874;6.964;2022-08-19T07:28:33;100984.56;;;24.56;62.75
28289;BME280;15558;50.874;6.964;2022-08-19T07:30:59;100981.63;;;24.53;62.55
28289;BME280;15558;50.874;6.964;2022-08-19T07:33:26;100985.66;;;24.48;62.75
28289;BME280;15558;50.874;6.964;2022-08-19T07:35:52;100991.84;;;24.50;62.84
28289;BME280;15558;50.874;6.964;2022-08-19T07:38:18;100988.06;;;24.46;62.82
28289;BME280;15558;50.874;6.964;2022-08-19T07:40:44;100990.84;;;24.39;62.73
28289;BME280;15558;50.874;6.964;2022-08-19T07:43:12;101002.97;;;24.55;62.13
28289;BME280;15558;50.874;6.964;2022-08-19T07:45:38;100992.91;;;24.68;62.14
28289;BME280;15558;50.874;6.964;2022-08-19T07:48:04;101001.22;;;24.73;61.63
28289;BME280;15558;50.874;6.964;2022-08-19T07:50:29;100992.88;;;24.90;61.37
28289;BME280;15558;50.874;6.964;2022-08-19T07:52:55;101008.97;;;24.72;61.44
28289;BME280;15558;50.874;6.964;2022-08-19T07:55:24;101009.75;;;24.92;61.56
28289;BME280;15558;50.874;6.964;2022-08-19T07:57:50;101007.31;;;24.94;61.21
28289;BME280;15558;50.874;6.964;2022-08-19T08:00:18;101012.59;;;24.92;61.36
28289;BME280;15558;50.874;6.964;2022-08-19T08:02:44;101014.50;;;24.84;61.42
28289;BME280;15558;50.874;6.964;2022-08-19T08:05:10;101020.97;;;24.78;61.89
28289;BME280;15558;50.874;6.964;2022-08-19T08:07:55;101014.56;;;24.88;61.38
28289;BME280;15558;50.874;6.964;2022-08-19T08:10:40;101023.84;;;24.78;61.76
28289;BME280;15558;50.874;6.964;2022-08-19T08:13:06;101025.63;;;24.86;61.63
28289;BME280;15558;50.874;6.964;2022-08-19T08:15:32;101024.94;;;24.70;62.14
28289;BME280;15558;50.874;6.964;2022-08-19T08:17:58;101026.88;;;24.88;61.90
28289;BME280;15558;50.874;6.964;2022-08-19T08:20:24;101030.41;;;24.78;62.34
28289;BME280;15558;50.874;6.964;2022-08-19T08:22:50;101029.88;;;24.95;62.09
28289;BME280;15558;50.874;6.964;2022-08-19T08:25:35;101034.56;;;25.06;61.26
28289;BME280;15558;50.874;6.964;2022-08-19T08:28:02;101033.59;;;24.96;61.47
28289;BME280;15558;50.874;6.964;2022-08-19T08:30:29;101027.13;;;25.02;61.23
28289;BME280;15558;50.874;6.964;2022-08-19T08:32:56;101026.84;;;25.10;60.86
28289;BME280;15558;50.874;6.964;2022-08-19T08:35:22;101026.59;;;25.22;60.27
28289;BME280;15558;50.874;6.964;2022-08-19T08:37:51;101028.31;;;25.30;60.02
28289;BME280;15558;50.874;6.964;2022-08-19T08:40:26;101023.38;;;25.27;60.38
28289;BME280;15558;50.874;6.964;2022-08-19T08:51:34;101022.25;;;26.04;58.83
28289;BME280;15558;50.874;6.964;2022-08-19T08:54:05;101015.25;;;26.41;57.46
28289;BME280;15558;50.874;6.964;2022-08-19T08:56:32;101022.59;;;26.35;57.29
28289;BME280;15558;50.874;6.964;2022-08-19T08:59:07;101026.88;;;26.54;56.45
28289;BME280;15558;50.874;6.964;2022-08-19T09:01:36;101022.56;;;26.78;57.10
28289;BME280;15558;50.874;6.964;2022-08-19T09:04:04;101023.56;;;27.02;55.55
28289;BME280;15558;50.874;6.964;2022-08-19T09:12:03;101019.66;;;27.41;54.20
28289;BME280;15558;50.874;6.964;2022-08-19T09:17:08;101011.94;;;27.66;52.69
28289;BME280;15558;50.874;6.964;2022-08-19T09:19:36;101012.81;;;27.73;52.79
28289;BME280;15558;50.874;6.964;2022-08-19T09:22:12;101013.31;;;28.03;51.13
28289;BME280;15558;50.874;6.964;2022-08-19T09:24:38;101005.91;;;28.09;51.41
28289;BME280;15558;50.874;6.964;2022-08-19T09:27:05;101004.28;;;28.32;49.93
28289;BME280;15558;50.874;6.964;2022-08-19T09:29:31;101002.63;;;28.27;50.53
28289;BME280;15558;50.874;6.964;2022-08-19T09:31:57;101002.66;;;28.59;49.46
28289;BME280;15558;50.874;6.964;2022-08-19T09:34:23;101000.16;;;28.85;48.30
28289;BME280;15558;50.874;6.964;2022-08-19T09:36:49;101001.81;;;28.89;47.75
28289;BME280;15558;50.874;6.964;2022-08-19T09:39:18;101003.44;;;28.97;48.16
28289;BME280;15558;50.874;6.964;2022-08-19T09:41:44;101005.53;;;28.93;47.49
28289;BME280;15558;50.874;6.964;2022-08-19T09:44:10;101005.50;;;29.00;47.27
28289;BME280;15558;50.874;6.964;2022-08-19T09:46:37;101002.56;;;29.21;46.85
28289;BME280;15558;50.874;6.964;2022-08-19T09:49:03;100989.69;;;29.42;46.80
28289;BME280;15558;50.874;6.964;2022-08-19T09:51:32;100995.91;;;29.37;46.75
28289;BME280;15558;50.874;6.964;2022-08-19T09:54:01;100986.72;;;29.56;46.13
28289;BME280;15558;50.874;6.964;2022-08-19T09:56:28;100979.00;;;29.29;45.97
28289;BME280;15558;50.874;6.964;2022-08-19T09:58:54;100997.88;;;29.61;45.56
28289;BME280;15558;50.874;6.964;2022-08-19T10:01:23;100988.75;;;29.63;45.36
28289;BME280;15558;50.874;6.964;2022-08-19T10:03:51;100992.97;;;29.51;45.11
28289;BME280;15558;50.874;6.964;2022-08-19T10:06:20;100995.00;;;29.58;44.53
28289;BME280;15558;50.874;6.964;2022-08-19T10:08:47;100984.09;;;29.89;44.91
28289;BME280;15558;50.874;6.964;2022-08-19T10:11:13;100982.81;;;29.94;43.77
28289;BME280;15558;50.874;6.964;2022-08-19T10:13:42;100988.44;;;29.40;44.27
28289;BME280;15558;50.874;6.964;2022-08-19T10:16:12;100980.63;;;29.40;45.07
28289;BME280;15558;50.874;6.964;2022-08-19T10:18:40;100984.22;;;29.68;44.20
28289;BME280;15558;50.874;6.964;2022-08-19T10:21:21;100986.91;;;30.00;43.04
28289;BME280;15558;50.874;6.964;2022-08-19T10:23:48;100984.47;;;29.95;43.65
28289;BME280;15558;50.874;6.964;2022-08-19T10:26:36;100984.97;;;29.79;43.66
28289;BME280;15558;50.874;6.964;2022-08-19T10:29:04;100977.44;;;29.96;43.79
28289;BME280;15558;50.874;6.964;2022-08-19T10:31:32;100978.72;;;29.88;43.74
28289;BME280;15558;50.874;6.964;2022-08-19T10:33:59;100977.63;;;29.58;43.26
28289;BME280;15558;50.874;6.964;2022-08-19T10:36:31;100984.22;;;29.62;43.93
28289;BME280;15558;50.874;6.964;2022-08-19T10:38:59;100970.00;;;29.95;43.21
28289;BME280;15558;50.874;6.964;2022-08-19T10:41:30;100973.16;;;30.14;42.82
28289;BME280;15558;50.874;6.964;2022-08-19T10:43:59;100971.22;;;29.94;43.21
28289;BME280;15558;50.874;6.964;2022-08-19T10:46:27;100965.56;;;29.73;43.19
28289;BME280;15558;50.874;6.964;2022-08-19T10:48:54;100968.06;;;29.71;42.77
28289;BME280;15558;50.874;6.964;2022-08-19T10:51:21;100958.56;;;29.74;42.65
28289;BME280;15558;50.874;6.964;2022-08-19T10:54:06;100960.66;;;29.63;43.17
28289;BME280;15558;50.874;6.964;2022-08-19T10:56:32;100958.19;;;29.62;42.92
28289;BME280;15558;50.874;6.964;2022-08-19T10:59:22;100953.19;;;29.66;42.75
28289;BME280;15558;50.874;6.964;2022-08-19T11:01:50;100957.13;;;29.28;43.51
28289;BME280;15558;50.874;6.964;2022-08-19T11:04:18;100957.16;;;29.18;43.43
28289;BME280;15558;50.874;6.964;2022-08-19T11:06:46;100962.19;;;28.79;45.00
28289;BME280;15558;50.874;6.964;2022-08-19T11:09:14;100961.31;;;28.93;44.66
28289;BME280;15558;50.874;6.964;2022-08-19T11:11:41;100967.09;;;28.93;44.47
28289;BME280;15558;50.874;6.964;2022-08-19T11:14:09;100953.44;;;29.03;44.65
28289;BME280;15558;50.874;6.964;2022-08-19T11:16:35;100954.63;;;29.23;43.69
28289;BME280;15558;50.874;6.964;2022-08-19T11:19:01;100950.03;;;29.39;43.47
28289;BME280;15558;50.874;6.964;2022-08-19T11:21:33;100948.78;;;29.40;43.10
28289;BME280;15558;50.874;6.964;2022-08-19T11:24:03;100956.63;;;29.40;43.45
28289;BME280;15558;50.874;6.964;2022-08-19T11:26:32;100942.50;;;29.59;42.58
28289;BME280;15558;50.874;6.964;2022-08-19T11:28:59;100954.53;;;29.47;42.36
28289;BME280;15558;50.874;6.964;2022-08-19T11:31:30;100949.59;;;29.44;42.58
28289;BME280;15558;50.874;6.964;2022-08-19T11:34:01;100940.97;;;29.31;42.41
28289;BME280;15558;50.874;6.964;2022-08-19T11:36:29;100956.31;;;29.07;42.86
28289;BME280;15558;50.874;6.964;2022-08-19T11:38:57;100950.19;;;28.84;43.16
28289;BME280;15558;50.874;6.964;2022-08-19T11:41:24;100946.06;;;28.82;43.31
28289;BME280;15558;50.874;6.964;2022-08-19T11:43:51;100945.66;;;28.87;43.37
28289;BME280;15558;50.874;6.964;2022-08-19T11:46:18;100941.91;;;28.93;43.26
28289;BME280;15558;50.874;6.964;2022-08-19T11:48:44;100953.03;;;28.98;42.97
28289;BME280;15558;50.874;6.964;2022-08-19T11:51:13;100951.38;;;29.00;43.77
28289;BME280;15558;50.874;6.964;2022-08-19T11:53:39;100950.97;;;29.05;42.88
28289;BME280;15558;50.874;6.964;2022-08-19T11:56:07;100940.97;;;29.31;42.32
28289;BME280;15558;50.874;6.964;2022-08-19T11:58:34;100941.41;;;29.26;41.55
28289;BME280;15558;50.874;6.964;2022-08-19T12:01:00;100931.84;;;29.42;41.50
28289;BME280;15558;50.874;6.964;2022-08-19T12:03:26;100937.50;;;29.70;41.13
28289;BME280;15558;50.874;6.964;2022-08-19T12:05:53;100943.19;;;29.84;40.49
28289;BME280;15558;50.874;6.964;2022-08-19T12:08:19;100935.84;;;29.62;41.02
28289;BME280;15558;50.874;6.964;2022-08-19T12:10:45;100935.38;;;29.67;40.56
28289;BME280;15558;50.874;6.964;2022-08-19T12:13:12;100930.44;;;29.74;41.16
28289;BME280;15558;50.874;6.964;2022-08-19T12:15:46;100945.25;;;29.83;40.26
28289;BME280;15558;50.874;6.964;2022-08-19T12:18:13;100944.88;;;29.78;40.04
28289;BME280;15558;50.874;6.964;2022-08-19T12:20:42;100937.69;;;30.00;40.19
28289;BME280;15558;50.874;6.964;2022-08-19T12:23:09;100935.59;;;29.32;40.91
28289;BME280;15558;50.874;6.964;2022-08-19T12:25:36;100940.22;;;29.09;41.28
28289;BME280;15558;50.874;6.964;2022-08-19T12:28:03;100934.38;;;29.23;41.00
28289;BME280;15558;50.874;6.964;2022-08-19T12:30:29;100928.94;;;29.42;40.83
28289;BME280;15558;50.874;6.964;2022-08-19T12:32:55;100924.66;;;29.64;40.21
28289;BME280;15558;50.874;6.964;2022-08-19T12:35:21;100930.38;;;29.81;39.73
28289;BME280;15558;50.874;6.964;2022-08-19T12:37:48;100920.47;;;29.79;39.04
28289;BME280;15558;50.874;6.964;2022-08-19T12:40:16;100922.94;;;29.84;39.10
28289;BME280;15558;50.874;6.964;2022-08-19T12:42:43;100926.81;;;30.14;38.28
28289;BME280;15558;50.874;6.964;2022-08-19T12:45:10;100915.22;;;30.17;37.93
28289;BME280;15558;50.874;6.964;2022-08-19T12:47:36;100916.69;;;29.85;38.63
28289;BME280;15558;50.874;6.964;2022-08-19T12:50:03;100916.34;;;29.80;38.44
28289;BME280;15558;50.874;6.964;2022-08-19T12:52:30;100917.16;;;29.80;38.03
28289;BME280;15558;50.874;6.964;2022-08-19T12:54:56;100910.16;;;29.78;37.62
28289;BME280;15558;50.874;6.964;2022-08-19T12:57:24;100910.81;;;29.96;37.11
28289;BME280;15558;50.874;6.964;2022-08-19T12:59:53;100905.78;;;30.06;38.65
28289;BME280;15558;50.874;6.964;2022-08-19T13:02:20;100904.88;;;30.16;39.10
28289;BME280;15558;50.874;6.964;2022-08-19T13:04:46;100888.78;;;30.08;39.01
28289;BME280;15558;50.874;6.964;2022-08-19T13:07:12;100899.06;;;30.16;38.89
28289;BME280;15558;50.874;6.964;2022-08-19T13:09:38;100889.72;;;29.99;39.11
28289;BME280;15558;50.874;6.964;2022-08-19T13:12:06;100897.94;;;30.03;39.45
28289;BME280;15558;50.874;6.964;2022-08-19T13:14:39;100889.34;;;29.90;39.97